Time,TemperatureF,DewpointF,PressureIn,WindDirection,WindDirectionDegrees,WindSpeedMPH,WindSpeedGustMPH,Humidity,HourlyPrecipIn,Conditions,Clouds,dailyrainin,SoftwareType,DateUTC
2013-02-26 00:06:00,25.3,22.3,29.99,NNE,22,0.0,-999.0,88,-99.99,,,0.00,Acu-Link.com,2013-02-26 05:06:00,
2013-02-26 00:21:00,25.0,22.2,29.99,South,180,0.0,-999.0,89,-99.99,,,0.00,Acu-Link.com,2013-02-26 05:21:00,
2013-02-26 00:36:00,24.8,22.0,29.98,NNW,337,0.0,-999.0,89,-99.99,,,0.00,Acu-Link.com,2013-02-26 05:36:00,
2013-02-26 00:52:00,24.6,21.8,29.98,SW,225,0.0,-999.0,89,-99.99,,,0.00,Acu-Link.com,2013-02-26 05:52:00,
2013-02-26 01:07:00,24.8,22.3,29.98,SE,135,0.0,-999.0,90,-99.99,,,0.00,Acu-Link.com,2013-02-26 06:07:00,
2013-02-26 01:22:00,25.2,22.7,29.96,SSE,157,0.0,-999.0,90,-99.99,,,0.00,Acu-Link.com,2013-02-26 06:22:00,
2013-02-26 01:38:00,25.9,22.8,29.96,NE,45,0.0,-999.0,88,-99.99,,,0.00,Acu-Link.com,2013-02-26 06:38:00,
2013-02-26 01:53:00,25.7,22.6,29.96,SSW,202,0.0,-999.0,88,-99.99,,,0.00,Acu-Link.com,2013-02-26 06:53:00,
2013-02-26 02:08:00,26.4,22.8,29.96,West,270,2.2,-999.0,86,-99.99,,,0.00,Acu-Link.com,2013-02-26 07:08:00,
2013-02-26 02:23:00,28.2,23.7,29.95,East,90,2.7,-999.0,83,-99.99,,,0.00,Acu-Link.com,2013-02-26 07:23:00,
2013-02-26 02:39:00,28.8,23.7,29.94,SSE,157,1.1,-999.0,81,-99.99,,,0.00,Acu-Link.com,2013-02-26 07:39:00,
2013-02-26 02:54:00,28.9,23.5,29.93,SE,135,2.2,-999.0,80,-99.99,,,0.00,Acu-Link.com,2013-02-26 07:54:00,
2013-02-26 03:09:00,29.1,23.7,29.93,East,90,0.0,-999.0,80,-99.99,,,0.00,Acu-Link.com,2013-02-26 08:09:00,
2013-02-26 03:24:00,29.7,24.0,29.93,South,180,1.7,-999.0,79,-99.99,,,0.00,Acu-Link.com,2013-02-26 08:24:00,
2013-02-26 03:40:00,29.3,23.6,29.92,SE,135,0.0,-999.0,79,-99.99,,,0.00,Acu-Link.com,2013-02-26 08:40:00,
2013-02-26 03:55:00,29.3,23.9,29.91,SW,225,0.0,-999.0,80,-99.99,,,0.00,Acu-Link.com,2013-02-26 08:55:00,
2013-02-26 17:39:00,34.7,34.2,29.54,South,180,5.3,-999.0,98,-99.99,,,0.04,Acu-Link.com,2013-02-26 22:39:00,
2013-02-26 17:54:00,34.9,34.4,29.55,ESE,112,2.2,-999.0,98,-99.99,,,0.06,Acu-Link.com,2013-02-26 22:54:00,
2013-02-26 18:09:00,35.1,34.6,29.56,SSE,157,2.7,-999.0,98,-99.99,,,0.08,Acu-Link.com,2013-02-26 23:09:00,
2013-02-26 18:25:00,35.1,34.6,29.56,SW,225,2.2,-999.0,98,-99.99,,,0.15,Acu-Link.com,2013-02-26 23:25:00,
2013-02-26 18:40:00,35.2,34.7,29.55,SW,225,5.3,-999.0,98,-99.99,,,0.22,Acu-Link.com,2013-02-26 23:40:00,
2013-02-26 18:56:00,35.2,34.7,29.55,NE,45,5.3,-999.0,98,-99.99,,,0.30,Acu-Link.com,2013-02-26 23:56:00,
2013-02-26 19:17:00,35.4,34.9,29.55,ESE,112,2.2,-999.0,98,-99.99,,,0.32,Acu-Link.com,2013-02-27 00:17:00,
2013-02-26 19:33:00,35.2,34.7,29.54,SE,135,2.7,-999.0,98,-99.99,,,0.39,Acu-Link.com,2013-02-27 00:33:00,
2013-02-26 19:58:00,34.5,34.0,29.53,ESE,112,4.7,-999.0,98,-99.99,,,0.43,Acu-Link.com,2013-02-27 00:58:00,
2013-02-26 20:14:00,34.0,33.5,29.53,South,180,2.7,-999.0,98,-99.99,,,0.50,Acu-Link.com,2013-02-27 01:14:00,
2013-02-26 20:35:00,34.0,33.5,29.50,ENE,67,1.1,-999.0,98,-99.99,,,0.53,Acu-Link.com,2013-02-27 01:35:00,
2013-02-26 20:50:00,34.3,33.8,29.50,East,90,2.2,-999.0,98,-99.99,,,0.59,Acu-Link.com,2013-02-27 01:50:00,
2013-02-26 21:14:00,34.5,34.0,29.50,West,270,1.7,-999.0,98,-99.99,,,0.60,Acu-Link.com,2013-02-27 02:14:00,
2013-02-26 21:29:00,34.9,34.4,29.49,SW,225,0.0,-999.0,98,-99.99,,,0.61,Acu-Link.com,2013-02-27 02:29:00,
2013-02-26 21:44:00,35.2,34.7,29.49,ENE,67,5.3,-999.0,98,-99.99,,,0.62,Acu-Link.com,2013-02-27 02:44:00,
2013-02-26 21:59:00,35.8,35.3,29.48,SE,135,4.7,-999.0,98,-99.99,,,0.62,Acu-Link.com,2013-02-27 02:59:00,
2013-02-26 22:14:00,36.0,35.5,29.48,ESE,112,3.2,-999.0,98,-99.99,,,0.62,Acu-Link.com,2013-02-27 03:14:00,
2013-02-26 22:30:00,36.0,35.5,29.47,South,180,4.2,-999.0,98,-99.99,,,0.62,Acu-Link.com,2013-02-27 03:30:00,
2013-02-26 22:45:00,36.3,35.8,29.46,East,90,1.7,-999.0,98,-99.99,,,0.62,Acu-Link.com,2013-02-27 03:45:00,
2013-02-26 23:00:00,36.5,36.0,29.46,SSE,157,1.7,-999.0,98,-99.99,,,0.62,Acu-Link.com,2013-02-27 04:00:00,
2013-02-26 23:15:00,36.5,36.0,29.45,SW,225,2.7,-999.0,98,-99.99,,,0.62,Acu-Link.com,2013-02-27 04:15:00,
2013-02-26 23:31:00,36.5,36.0,29.45,SSW,202,0.0,-999.0,98,-99.99,,,0.62,Acu-Link.com,2013-02-27 04:31:00,
2013-02-26 23:46:00,36.7,35.9,29.45,South,180,6.3,-999.0,97,-99.99,,,0.62,Acu-Link.com,2013-02-27 04:46:00,